METAR stanice u blizini

 

LYBE - Beograd / Surčin, Srbija
Ažurirano: 24/04/2018 00:30
Vedro
Vedro
 Pravac vetra IJI
Vetar: IJI 6 km/h
Temperatura: 16°C
Tačka rose: 10°C
Vlažnost: 68%
Pritisak: 1014 hPa
Pregled: Vedro
Vidljivost: greater than 10 km
2018/04/23 22:30 LYBE 232230Z 12003KT CAVOK 16/10 Q1014 NOSIG
LYBT - Beograd / Batajnica, Srbija
Ažurirano: 24/04/2018 00:30
Vedro
Vedro
 Pravac vetra SSZ
Vetar: SSZ 4 km/h
Temperatura: 14°C
Tačka rose: 10°C
Vlažnost: 77%
Pritisak: 1014 hPa
Pregled: Vedro
Vidljivost: greater than 10 km
2018/04/23 22:30 LYBT 232230Z 33002KT CAVOK 14/10 Q1014 NOSIG
LYVR - Vršac, Srbija
Ažurirano: 24/04/2018 00:30
Vedro
Vedro
 Pravac vetra SSI
Vetar: SSI 6 km/h
Temperatura: 12°C
Tačka rose: 10°C
Vlažnost: 88%
Pritisak: 1014 hPa
Pregled: Vedro
Vidljivost: greater than 10 km
2018/04/23 22:30 LYVR 232230Z 02003KT 360V060 CAVOK 12/10 Q1014 NOSIG
 
LYKV - Lađevci, Srbija
Ažurirano: 24/04/2018 00:30
Vedro
Vedro
 Pravac vetra varies
Vetar: varies 4 km/h
Temperatura: 11°C
Tačka rose: 9°C
Vlažnost: 88%
Pritisak: 1015 hPa
Pregled: Vedro
Vidljivost: greater than 10 km
2018/04/23 22:30 LYKV 232230Z VRB02KT CAVOK 11/09 Q1015 NOSIG
LYNI - Niš, Srbija
Ažurirano: 24/04/2018 00:00
Vedro
Vedro
 Pravac vetra IJI
Vetar: IJI 7 km/h
Temperatura: 15°C
Tačka rose: 7°C
Vlažnost: 59%
Pritisak: 1015 hPa
Pregled: Vedro
Vidljivost: greater than 10 km
2018/04/23 22:00 LYNI 232200Z 11004KT CAVOK 15/07 Q1015 NOSIG
BKPR - Priština, Srbija
Ažurirano: 24/04/2018 01:00
Vedro
Vedro
 Pravac vetra SSI
Vetar: SSI 7 km/h
Temperatura: 11°C
Tačka rose: 4°C
Vlažnost: 62%
Pritisak: 1017 hPa
Pregled: Vedro
Vidljivost: greater than 10 km
2018/04/23 23:00 BKPR 232300Z 03004KT CAVOK 11/04 Q1017 NOSIG
 
LHPP - Pecs / Pogany, Hungary
Ažurirano: 23/04/2018 18:45
NOT Current
Vedro
Vedro
 Pravac vetra ZSZ
Vetar: ZSZ 7 km/h
Temperatura: 24°C
Tačka rose: 10°C
Vlažnost: 41%
Pritisak: 1013 hPa
Pregled: Vedro
Vidljivost: greater than 10 km
2018/04/23 16:45 LHPP 231645Z 29004KT CAVOK 24/10 Q1013
LHUD - Szeged, Hungary
Ažurirano: 23/04/2018 23:45
Vedro
Vedro
 Pravac vetra I
Vetar: I 11 km/h
Temperatura: 18°C
Tačka rose: 11°C
Vlažnost: 64%
Pritisak: 1014 hPa
Pregled: Vedro
Vidljivost: greater than 10 km
2018/04/23 21:45 LHUD 232145Z 08006KT CAVOK 18/11 Q1014
LRTR - Timisoara, Romania
Ažurirano: 24/04/2018 00:30
Vedro
Vedro
 Pravac vetra SI
Vetar: SI 15 km/h
Temperatura: 18°C
Tačka rose: 13°C
Vlažnost: 73%
Pritisak: 1014 hPa
Pregled: Vedro
Vidljivost: greater than 10 km
2018/04/23 22:30 LRTR 232230Z 05008KT CAVOK 18/13 Q1014
 
LRCV - Craiova, Romania
Ažurirano: 24/04/2018 00:30
Vedro
Vedro
 Pravac vetra Z
Vetar: Z 11 km/h
Temperatura: 16°C
Tačka rose: 9°C
Vlažnost: 63%
Pritisak: 1013 hPa
Pregled: Vedro
Vidljivost: greater than 10 km
2018/04/23 22:30 LRCV 232230Z 26006KT CAVOK 16/09 Q1013
LBSF - Sofia, Bulgaria
Ažurirano: 24/04/2018 00:30
Vedro
Vedro
 Pravac vetra calm
Vetar: Tišina
Temperatura: 13°C
Tačka rose: 7°C
Vlažnost: 67%
Pritisak: 1017 hPa
Pregled: Vedro
Vidljivost: greater than 10 km
2018/04/23 22:30 LBSF 232230Z 00000KT CAVOK 13/07 Q1017 NOSIG
LWSK - Skoplje, Makedonija
Ažurirano: 24/04/2018 00:30
Vedro
Vedro
 Pravac vetra I
Vetar: I 4 km/h
Temperatura: 12°C
Tačka rose: 7°C
Vlažnost: 72%
Pritisak: 1016 hPa
Pregled: Vedro
Vidljivost: greater than 10 km
2018/04/23 22:30 LWSK 232230Z 08002KT CAVOK 12/07 Q1016 NOSIG
 
LYPG - Podgorica, Crna Gora
Ažurirano: 24/04/2018 00:30
Vedro
Vedro
 Pravac vetra varies
Vetar: varies 2 km/h
Temperatura: 15°C
Tačka rose: 13°C
Vlažnost: 88%
Pritisak: 1016 hPa
Pregled: Vedro
Vidljivost: greater than 10 km
2018/04/23 22:30 LYPG 232230Z VRB01KT CAVOK 15/13 Q1016 NOSIG
LQSA - Sarajevo, Bosna i Hercegovina
Ažurirano: 24/04/2018 00:00
Vedro
Vedro
 Pravac vetra varies
Vetar: varies 4 km/h
Temperatura: 13°C
Tačka rose: 7°C
Vlažnost: 67%
Pritisak: 1016 hPa
Pregled: Vedro
Vidljivost: greater than 10 km
2018/04/23 22:00 LQSA 232200Z VRB02KT CAVOK 13/07 Q1016
LDOS - Osijek, Hrvatksa
Ažurirano: 24/04/2018 00:30
Vedro
Vedro
 Pravac vetra ZJZ
Vetar: ZJZ 11 km/h
Temperatura: 14°C
Tačka rose: 8°C
Vlažnost: 67%
Pritisak: 1014 hPa
Pregled: Vedro
Vidljivost: greater than 10 km
2018/04/23 22:30 LDOS 232230Z 25006KT CAVOK 14/08 Q1014